Time;durP1;ratioP1;P1;durP2;ratioP2;P2;SDS_P1;SDS_P2;PMS_P1;PMS_P2;Temp;Humidity;BMP_temperature;BMP_pressure;BME280_temperature;BME280_humidity;BME280_pressure;Samples;Min_cycle;Max_cycle;Signal;HPM_P1;HPM_P2
2023/12/09 00:01:30;;;;;;;30.90;14.17;;;;;;;3.40;100.00;100386.75;4961032;28;20199;-68
2023/12/09 00:03:57;;;;;;;32.27;14.30;;;;;;;3.39;100.00;100377.09;4966871;28;20197;-70
2023/12/09 00:06:23;;;;;;;33.50;15.13;;;;;;;3.40;100.00;100388.47;4962285;28;20209;-68
2023/12/09 00:08:50;;;;;;;31.77;13.30;;;;;;;3.37;100.00;100388.34;4966676;28;20612;-70
2023/12/09 00:11:17;;;;;;;29.83;14.00;;;;;;;3.47;100.00;100385.28;4961067;28;20202;-70
2023/12/09 00:13:43;;;;;;;30.27;12.30;;;;;;;3.45;100.00;100384.31;4975527;28;20201;-68
2023/12/09 00:16:09;;;;;;;29.17;12.50;;;;;;;3.45;100.00;100395.69;4947853;28;20214;-67
2023/12/09 00:18:36;;;;;;;27.93;12.70;;;;;;;3.43;100.00;100393.81;4951621;28;20713;-68
2023/12/09 00:21:03;;;;;;;30.50;12.43;;;;;;;3.43;100.00;100385.97;4964657;28;20197;-70
2023/12/09 00:23:29;;;;;;;26.10;12.67;;;;;;;3.47;100.00;100388.78;4961141;28;20216;-68
2023/12/09 00:25:55;;;;;;;28.67;12.40;;;;;;;3.52;100.00;100388.06;4954430;28;20297;-69
2023/12/09 00:28:22;;;;;;;25.57;11.57;;;;;;;3.50;100.00;100385.41;4958763;28;20208;-68
2023/12/09 00:30:48;;;;;;;25.83;11.77;;;;;;;3.53;100.00;100382.00;4961812;28;20208;-67
2023/12/09 00:33:15;;;;;;;22.97;11.03;;;;;;;3.56;100.00;100380.41;4950848;28;20202;-71
2023/12/09 00:35:41;;;;;;;30.17;12.17;;;;;;;3.57;100.00;100381.31;4975188;28;20686;-68
2023/12/09 00:38:08;;;;;;;28.33;12.47;;;;;;;3.73;100.00;100387.25;4961037;28;20218;-67
2023/12/09 00:40:34;;;;;;;29.63;12.23;;;;;;;3.83;100.00;100396.34;4960104;28;20268;-67
2023/12/09 00:43:01;;;;;;;27.37;10.77;;;;;;;3.78;100.00;100390.03;4972877;28;20628;-68
2023/12/09 00:45:27;;;;;;;27.47;12.50;;;;;;;3.75;100.00;100396.06;4959302;28;20596;-66
2023/12/09 00:47:54;;;;;;;27.77;12.37;;;;;;;3.60;100.00;100407.59;4964906;28;20262;-68
2023/12/09 00:50:21;;;;;;;25.20;11.70;;;;;;;3.67;100.00;100401.81;4961361;28;20313;-67
2023/12/09 00:52:47;;;;;;;29.97;12.93;;;;;;;3.60;100.00;100407.59;4953784;28;20553;-68
2023/12/09 00:55:13;;;;;;;28.43;12.63;;;;;;;3.61;100.00;100401.56;4956509;28;20765;-69
2023/12/09 00:57:40;;;;;;;28.93;12.63;;;;;;;3.59;100.00;100414.56;4956005;28;20237;-68
2023/12/09 01:00:07;;;;;;;29.40;13.93;;;;;;;3.51;100.00;100404.63;4964332;28;20308;-69
2023/12/09 01:02:33;;;;;;;25.27;11.33;;;;;;;3.52;100.00;100415.16;4956507;28;20914;-67
2023/12/09 01:04:59;;;;;;;26.33;11.97;;;;;;;3.51;100.00;100410.75;4956448;28;20678;-68
2023/12/09 01:07:26;;;;;;;26.43;11.90;;;;;;;3.49;100.00;100416.75;4952152;28;20206;-67
2023/12/09 01:09:52;;;;;;;28.80;11.77;;;;;;;3.50;100.00;100416.81;4952760;28;20315;-68
2023/12/09 01:12:19;;;;;;;30.47;12.50;;;;;;;3.54;100.00;100416.09;4959058;28;20212;-70
2023/12/09 01:14:45;;;;;;;29.27;12.60;;;;;;;3.69;100.00;100415.88;4969130;28;20257;-68
2023/12/09 01:17:12;;;;;;;29.47;12.87;;;;;;;3.67;100.00;100405.34;4954554;28;20922;-67
2023/12/09 01:19:38;;;;;;;28.07;12.20;;;;;;;3.64;100.00;100407.81;4955700;28;20642;-69
2023/12/09 01:22:05;;;;;;;33.30;13.27;;;;;;;3.68;100.00;100407.13;4961432;28;20205;-68
2023/12/09 01:24:31;;;;;;;30.57;13.30;;;;;;;3.68;100.00;100417.59;4967863;28;20293;-67
2023/12/09 01:26:57;;;;;;;29.97;14.07;;;;;;;3.69;100.00;100428.97;4967489;28;20213;-71
2023/12/09 01:29:24;;;;;;;30.53;13.30;;;;;;;3.76;100.00;100431.88;4957909;28;20247;-68
2023/12/09 01:31:50;;;;;;;28.60;13.33;;;;;;;3.70;100.00;100430.75;4973650;28;20202;-69
2023/12/09 01:34:17;;;;;;;27.33;12.67;;;;;;;3.70;100.00;100434.25;4957456;28;20589;-67
2023/12/09 01:36:43;;;;;;;37.37;14.03;;;;;;;3.69;100.00;100427.22;4953513;28;20245;-68
2023/12/09 01:39:11;;;;;;;31.50;12.47;;;;;;;3.82;100.00;100428.63;4971043;28;20222;-67
2023/12/09 01:41:37;;;;;;;30.80;12.53;;;;;;;3.88;100.00;100434.09;4975907;28;20207;-68
2023/12/09 01:44:04;;;;;;;28.33;13.07;;;;;;;3.86;100.00;100425.28;4956991;28;20202;-67
2023/12/09 01:46:33;;;;;;;28.23;12.70;;;;;;;3.76;100.00;100420.53;4962814;28;20198;-67
2023/12/09 01:48:59;;;;;;;29.73;12.67;;;;;;;3.85;100.00;100427.84;4961352;28;20222;-69
2023/12/09 01:51:27;;;;;;;28.07;12.90;;;;;;;3.72;100.00;100418.59;4962638;28;20294;-68
2023/12/09 01:53:54;;;;;;;26.77;13.00;;;;;;;3.63;100.00;100416.50;4961243;28;20198;-68
2023/12/09 01:56:21;;;;;;;25.30;12.23;;;;;;;3.69;100.00;100426.34;4973956;28;20214;-68
2023/12/09 01:58:49;;;;;;;31.40;13.70;;;;;;;3.73;100.00;100428.25;4962621;28;20222;-68
2023/12/09 02:01:15;;;;;;;26.43;12.90;;;;;;;3.74;100.00;100425.69;4958851;28;20690;-68
2023/12/09 02:03:42;;;;;;;28.10;12.60;;;;;;;3.68;100.00;100422.81;4957524;28;20211;-68
2023/12/09 02:06:09;;;;;;;30.17;12.73;;;;;;;3.45;100.00;100403.53;4960371;28;20313;-67
2023/12/09 02:08:38;;;;;;;28.97;12.83;;;;;;;3.41;100.00;100403.34;4961213;28;20257;-70
2023/12/09 02:11:17;;;;;;;31.07;12.80;;;;;;;3.49;100.00;100404.56;4960736;28;20203;-70
2023/12/09 02:14:10;;;;;;;30.23;11.70;;;;;;;3.51;100.00;100404.63;4957190;28;20206;-68
2023/12/09 02:16:45;;;;;;;28.60;12.07;;;;;;;3.37;100.00;100396.19;4947061;28;20297;-68
2023/12/09 02:19:13;;;;;;;24.23;10.97;;;;;;;3.29;100.00;100390.66;4962477;28;20677;-66
2023/12/09 02:22:03;;;;;;;25.07;11.43;;;;;;;3.23;100.00;100397.34;4955553;28;20293;-69
2023/12/09 02:24:30;;;;;;;30.07;12.87;;;;;;;3.26;100.00;100382.66;4954690;28;20236;-68
2023/12/09 02:27:02;;;;;;;33.07;11.77;;;;;;;3.39;100.00;100379.72;4962630;28;20212;-71
2023/12/09 02:29:34;;;;;;;24.10;12.30;;;;;;;3.38;100.00;100380.56;4980497;28;20324;-70
2023/12/09 02:32:05;;;;;;;29.20;12.30;;;;;;;3.36;100.00;100379.59;4976156;28;20793;-67
2023/12/09 02:34:36;;;;;;;32.20;11.23;;;;;;;3.31;100.00;100378.50;4962566;28;20249;-70
2023/12/09 02:37:04;;;;;;;25.30;11.10;;;;;;;3.15;100.00;100362.97;4962886;28;20261;-68
2023/12/09 02:39:31;;;;;;;24.03;10.57;;;;;;;3.17;100.00;100366.56;4967044;28;20359;-68
2023/12/09 02:42:01;;;;;;;25.00;11.57;;;;;;;3.16;100.00;100364.75;4963679;28;20205;-70
2023/12/09 02:44:28;;;;;;;25.33;10.90;;;;;;;3.17;100.00;100349.97;4958601;28;20206;-69
2023/12/09 02:46:57;;;;;;;25.40;12.33;;;;;;;3.21;100.00;100321.41;4963308;28;20571;-68
2023/12/09 02:49:23;;;;;;;24.40;11.57;;;;;;;3.28;100.00;100319.91;4960480;28;20230;-67
2023/12/09 02:51:50;;;;;;;27.57;11.10;;;;;;;3.23;100.00;100318.84;4959801;28;20202;-70
2023/12/09 02:54:16;;;;;;;24.73;10.27;;;;;;;3.23;100.00;100324.06;4958879;28;20204;-68
2023/12/09 02:56:43;;;;;;;25.63;10.13;;;;;;;3.15;100.00;100322.00;4960063;28;20602;-68
2023/12/09 02:59:09;;;;;;;24.97;11.20;;;;;;;3.17;100.00;100318.56;4958989;28;20320;-68
2023/12/09 03:01:36;;;;;;;23.53;10.73;;;;;;;3.15;100.00;100308.94;4959032;28;20289;-68
2023/12/09 03:04:02;;;;;;;27.67;11.03;;;;;;;3.19;100.00;100316.91;4960711;28;20206;-70
2023/12/09 03:06:29;;;;;;;23.00;10.33;;;;;;;3.13;100.00;100328.00;4963356;28;20599;-69
2023/12/09 03:08:55;;;;;;;21.50;9.87;;;;;;;3.11;100.00;100327.94;4967544;28;20256;-67
2023/12/09 03:11:22;;;;;;;25.27;10.50;;;;;;;3.12;100.00;100340.19;4961041;28;20237;-68
2023/12/09 03:13:48;;;;;;;21.13;10.50;;;;;;;3.24;100.00;100341.56;4961257;28;20289;-67
2023/12/09 03:16:14;;;;;;;29.53;11.73;;;;;;;3.32;100.00;100337.53;4959736;28;20295;-69
2023/12/09 03:18:41;;;;;;;26.70;11.20;;;;;;;3.30;100.00;100337.47;4961599;28;20231;-67
2023/12/09 03:21:13;;;;;;;28.13;10.40;;;;;;;3.17;100.00;100339.50;4966345;28;20201;-69
2023/12/09 03:23:41;;;;;;;23.33;10.00;;;;;;;3.12;100.00;100337.56;4959651;28;20216;-67
2023/12/09 03:26:15;;;;;;;20.57;10.23;;;;;;;3.05;100.00;100335.53;4956913;28;20209;-66
2023/12/09 03:28:42;;;;;;;22.33;9.63;;;;;;;3.04;100.00;100333.75;4964605;28;20225;-67
2023/12/09 03:31:13;;;;;;;27.80;10.50;;;;;;;3.08;100.00;100353.09;4963270;28;20206;-70
2023/12/09 03:33:41;;;;;;;24.20;9.73;;;;;;;3.00;100.00;100351.88;4979076;28;20210;-68
2023/12/09 03:36:09;;;;;;;21.50;9.80;;;;;;;3.00;100.00;100355.38;4968868;28;20670;-68
2023/12/09 03:38:35;;;;;;;26.40;10.43;;;;;;;3.01;100.00;100349.31;4968299;28;20716;-69
2023/12/09 03:41:05;;;;;;;25.43;8.57;;;;;;;3.03;100.00;100355.50;4963786;28;20198;-67
2023/12/09 03:43:32;;;;;;;22.50;9.60;;;;;;;3.00;100.00;100350.16;4961793;28;20208;-68
2023/12/09 03:45:59;;;;;;;22.83;9.70;;;;;;;3.04;100.00;100345.94;4965727;28;20260;-67
2023/12/09 03:48:26;;;;;;;18.43;8.53;;;;;;;3.06;100.00;100344.28;4959013;28;20210;-70
2023/12/09 03:50:53;;;;;;;18.90;7.90;;;;;;;3.07;100.00;100333.88;4958570;28;20228;-67
2023/12/09 03:53:19;;;;;;;19.50;7.63;;;;;;;3.11;100.00;100343.63;4951598;28;20206;-67
2023/12/09 03:55:46;;;;;;;15.70;7.97;;;;;;;3.14;100.00;100335.91;4976283;28;20253;-68
2023/12/09 03:58:12;;;;;;;22.47;8.37;;;;;;;3.21;100.00;100349.28;4961027;28;20254;-68
2023/12/09 04:00:39;;;;;;;19.93;9.00;;;;;;;3.27;100.00;100332.13;4979892;28;20229;-68
2023/12/09 04:03:06;;;;;;;19.77;8.87;;;;;;;3.36;100.00;100337.72;4956175;28;20198;-69
2023/12/09 04:05:33;;;;;;;17.80;8.80;;;;;;;3.35;100.00;100333.31;4964097;28;20289;-68
2023/12/09 04:07:59;;;;;;;18.87;8.13;;;;;;;3.37;100.00;100325.53;4961381;28;20210;-67
2023/12/09 04:10:26;;;;;;;19.60;8.70;;;;;;;3.44;100.00;100336.31;4981463;28;20221;-70
2023/12/09 04:12:52;;;;;;;17.17;8.27;;;;;;;3.43;100.00;100338.84;4961609;28;20222;-68
2023/12/09 04:15:18;;;;;;;17.47;8.37;;;;;;;3.49;100.00;100326.00;4961121;28;20281;-69
2023/12/09 04:17:46;;;;;;;17.47;8.37;;;;;;;3.55;100.00;100327.97;4976972;28;20216;-67
2023/12/09 04:20:12;;;;;;;17.10;7.97;;;;;;;3.61;100.00;100318.66;4959508;28;20233;-69
2023/12/09 04:22:39;;;;;;;18.37;8.60;;;;;;;3.61;100.00;100317.78;4965839;28;20298;-68
2023/12/09 04:25:06;;;;;;;16.30;7.63;;;;;;;3.54;100.00;100319.22;4963758;28;20206;-68
2023/12/09 04:27:33;;;;;;;16.77;7.83;;;;;;;3.50;100.00;100317.31;4972700;28;20273;-67
2023/12/09 04:30:01;;;;;;;18.73;8.27;;;;;;;3.48;100.00;100308.53;4962112;28;20717;-68
2023/12/09 04:32:29;;;;;;;15.50;7.97;;;;;;;3.56;100.00;100325.41;4963090;28;20210;-70
2023/12/09 04:34:57;;;;;;;16.67;7.20;;;;;;;3.50;100.00;100311.19;4961542;28;20198;-67
2023/12/09 04:37:23;;;;;;;22.33;7.77;;;;;;;3.49;100.00;100325.13;4972492;28;20237;-67
2023/12/09 04:39:50;;;;;;;20.40;8.13;;;;;;;3.59;100.00;100311.56;4977572;28;20595;-70
2023/12/09 04:42:18;;;;;;;16.20;7.47;;;;;;;3.53;100.00;100296.50;4963632;28;20206;-68
2023/12/09 04:44:44;;;;;;;17.10;7.93;;;;;;;3.61;100.00;100299.44;4962303;28;20289;-68
2023/12/09 04:47:12;;;;;;;15.40;7.63;;;;;;;3.57;100.00;100284.44;4962935;28;20206;-67
2023/12/09 04:49:38;;;;;;;15.53;7.27;;;;;;;3.57;100.00;100290.56;4965425;28;20249;-71
2023/12/09 04:52:05;;;;;;;17.63;8.17;;;;;;;3.56;100.00;100294.00;4980403;28;20582;-68
2023/12/09 04:54:32;;;;;;;16.13;7.73;;;;;;;3.62;100.00;100293.38;4966761;28;20206;-68
2023/12/09 04:56:58;;;;;;;16.03;7.20;;;;;;;3.72;100.00;100299.03;4967343;28;20267;-67
2023/12/09 04:59:25;;;;;;;18.47;7.90;;;;;;;3.63;100.00;100280.34;4963543;28;20281;-71
2023/12/09 05:01:51;;;;;;;18.37;7.40;;;;;;;3.62;100.00;100285.53;4960992;28;20206;-68
2023/12/09 05:04:17;;;;;;;18.43;7.43;;;;;;;3.62;100.00;100282.91;4967553;28;20207;-68
2023/12/09 05:06:44;;;;;;;19.57;7.30;;;;;;;3.60;100.00;100290.72;4970027;28;20206;-67
2023/12/09 05:09:11;;;;;;;17.43;7.13;;;;;;;3.70;100.00;100289.34;4966688;28;20219;-67
2023/12/09 05:11:37;;;;;;;17.50;7.63;;;;;;;3.69;100.00;100277.97;4963438;28;20247;-69
2023/12/09 05:14:03;;;;;;;13.77;6.30;;;;;;;3.74;100.00;100276.41;4967530;28;20209;-69
2023/12/09 05:16:30;;;;;;;17.67;7.07;;;;;;;3.70;100.00;100277.13;4968554;28;20211;-68
2023/12/09 05:18:56;;;;;;;15.30;6.87;;;;;;;3.73;100.00;100271.13;4961780;28;20294;-68
2023/12/09 05:21:23;;;;;;;12.63;6.83;;;;;;;3.82;100.00;100260.09;4962080;28;20215;-67
2023/12/09 05:24:02;;;;;;;19.53;8.20;;;;;;;3.83;100.00;100269.72;4976905;28;20204;-70
2023/12/09 05:26:29;;;;;;;17.80;7.17;;;;;;;3.82;100.00;100257.47;4957412;28;20210;-68
2023/12/09 05:28:56;;;;;;;15.60;7.27;;;;;;;3.78;100.00;100249.50;4961512;28;20330;-67
2023/12/09 05:31:23;;;;;;;17.90;7.97;;;;;;;3.81;100.00;100248.72;4963047;28;20596;-68
2023/12/09 05:33:50;;;;;;;19.13;8.07;;;;;;;3.88;100.00;100250.72;4961175;28;20766;-70
2023/12/09 05:36:17;;;;;;;18.37;8.20;;;;;;;3.88;100.00;100244.59;4964193;28;20213;-70
2023/12/09 05:38:44;;;;;;;17.70;8.47;;;;;;;3.93;100.00;100222.97;4966924;28;20237;-67
2023/12/09 05:41:25;;;;;;;17.97;8.47;;;;;;;3.91;100.00;100253.47;4998368;28;20225;-73
2023/12/09 05:43:51;;;;;;;16.70;7.70;;;;;;;3.90;100.00;100246.44;5001306;28;20200;-71
2023/12/09 05:46:19;;;;;;;15.83;7.60;;;;;;;3.89;100.00;100241.16;4998219;28;20259;-71
2023/12/09 05:48:47;;;;;;;18.57;7.67;;;;;;;3.84;100.00;100227.88;5003089;28;20203;-72
2023/12/09 05:51:13;;;;;;;15.90;7.73;;;;;;;3.97;100.00;100232.72;5003775;28;20304;-73
2023/12/09 05:53:41;;;;;;;15.03;6.83;;;;;;;3.95;100.00;100226.53;4997532;28;20208;-72
2023/12/09 05:56:14;;;;;;;13.17;7.07;;;;;;;3.87;100.00;100227.09;5013237;28;20208;-71
2023/12/09 05:58:40;;;;;;;12.17;6.20;;;;;;;3.86;100.00;100225.31;5004051;28;20303;-71
2023/12/09 06:01:07;;;;;;;19.20;7.67;;;;;;;3.78;100.00;100212.84;4995237;28;20313;-71
2023/12/09 06:03:33;;;;;;;16.57;7.93;;;;;;;3.79;100.00;100216.34;4996448;28;20631;-71
2023/12/09 06:06:00;;;;;;;16.57;6.87;;;;;;;3.82;100.00;100220.81;5001700;28;20205;-73
2023/12/09 06:08:27;;;;;;;14.83;7.23;;;;;;;3.82;100.00;100221.69;5001539;28;20661;-71
2023/12/09 06:10:53;;;;;;;17.63;7.43;;;;;;;3.82;100.00;100220.81;5002407;28;20244;-70
2023/12/09 06:13:20;;;;;;;13.50;6.87;;;;;;;3.86;100.00;100226.22;5000169;28;20267;-71
2023/12/09 06:15:46;;;;;;;15.83;7.17;;;;;;;3.89;100.00;100212.34;5003561;28;20614;-71
2023/12/09 06:18:16;;;;;;;16.90;8.00;;;;;;;4.02;100.00;100206.72;5004525;28;20241;-73
2023/12/09 06:20:43;;;;;;;16.63;7.93;;;;;;;4.05;100.00;100197.25;4992866;28;20706;-73
2023/12/09 06:23:09;;;;;;;15.90;7.50;;;;;;;4.04;100.00;100211.19;5005241;28;20692;-71
2023/12/09 06:25:36;;;;;;;16.10;7.47;;;;;;;4.01;100.00;100197.97;4999594;28;20213;-69
2023/12/09 06:28:02;;;;;;;18.23;8.20;;;;;;;4.08;100.00;100207.84;4996918;28;20673;-70
2023/12/09 06:30:29;;;;;;;16.10;7.67;;;;;;;4.06;100.00;100203.38;4998686;28;20227;-72
2023/12/09 06:32:55;;;;;;;15.30;7.03;;;;;;;4.06;100.00;100206.00;4997790;28;20213;-71
2023/12/09 06:35:22;;;;;;;15.40;6.60;;;;;;;4.06;100.00;100203.38;4998856;28;20205;-70
2023/12/09 06:37:49;;;;;;;15.47;7.53;;;;;;;4.13;100.00;100220.22;5001045;28;20216;-73
2023/12/09 06:40:15;;;;;;;18.10;8.10;;;;;;;4.09;100.00;100212.25;5000876;28;20217;-71
2023/12/09 06:42:42;;;;;;;19.87;8.23;;;;;;;4.22;100.00;100212.69;5000412;28;20298;-69
2023/12/09 06:45:08;;;;;;;15.50;7.67;;;;;;;4.25;100.00;100208.44;5010880;28;20634;-72
2023/12/09 06:47:35;;;;;;;20.70;7.80;;;;;;;4.26;100.00;100204.97;5003330;28;20226;-73
2023/12/09 06:50:02;;;;;;;18.20;8.40;;;;;;;4.17;100.00;100188.94;5001406;28;20217;-71
2023/12/09 06:52:29;;;;;;;16.60;7.80;;;;;;;4.18;100.00;100188.09;5004418;28;20205;-71
2023/12/09 06:54:55;;;;;;;20.60;7.93;;;;;;;4.09;100.00;100185.16;4997564;28;20730;-72
2023/12/09 06:57:21;;;;;;;16.30;8.30;;;;;;;4.14;100.00;100190.56;4994654;28;20259;-69
2023/12/09 06:59:48;;;;;;;20.67;7.90;;;;;;;4.20;100.00;100202.13;4996265;28;20224;-74
2023/12/09 07:02:15;;;;;;;19.77;7.40;;;;;;;4.22;100.00;100210.06;5015501;28;20210;-70
2023/12/09 07:04:41;;;;;;;15.33;7.67;;;;;;;4.20;100.00;100212.63;5002827;28;20206;-74
2023/12/09 07:07:07;;;;;;;19.30;8.57;;;;;;;4.24;100.00;100205.75;4997742;28;20235;-72
2023/12/09 07:09:44;;;;;;;20.63;8.23;;;;;;;4.38;100.00;100214.97;5014774;28;20220;-71
2023/12/09 07:12:10;;;;;;;21.67;9.27;;;;;;;4.36;100.00;100216.66;4995535;28;20728;-71
2023/12/09 07:14:37;;;;;;;19.30;8.07;;;;;;;4.37;100.00;100214.09;4997890;28;20683;-71
2023/12/09 07:17:03;;;;;;;20.57;8.20;;;;;;;4.37;100.00;100213.19;4997594;28;20214;-71
2023/12/09 07:19:29;;;;;;;18.83;8.57;;;;;;;4.28;100.00;100223.38;4991160;28;20230;-71
2023/12/09 07:21:56;;;;;;;17.30;7.97;;;;;;;4.23;100.00;100214.47;4989858;28;20228;-73
2023/12/09 07:24:22;;;;;;;17.03;7.83;;;;;;;4.15;100.00;100208.94;4989766;28;20689;-72
2023/12/09 07:26:49;;;;;;;14.30;7.33;;;;;;;4.15;100.00;100215.91;4989076;28;20267;-71
2023/12/09 07:29:16;;;;;;;17.33;8.30;;;;;;;4.24;100.00;100204.03;4984660;28;20213;-71
2023/12/09 07:31:42;;;;;;;16.60;8.80;;;;;;;4.20;100.00;100207.38;4990404;28;20207;-71
2023/12/09 07:34:09;;;;;;;17.43;8.10;;;;;;;4.17;100.00;100204.66;4988785;28;20293;-73
2023/12/09 07:36:36;;;;;;;16.63;8.27;;;;;;;4.24;100.00;100211.00;4997891;28;20204;-71
2023/12/09 07:39:02;;;;;;;21.20;8.73;;;;;;;4.23;100.00;100209.22;5000349;28;20201;-73
2023/12/09 07:41:29;;;;;;;16.27;7.83;;;;;;;4.21;100.00;100198.69;5004066;28;20723;-73
2023/12/09 07:43:55;;;;;;;18.33;7.67;;;;;;;4.21;100.00;100197.78;4992779;28;20285;-70
2023/12/09 07:46:22;;;;;;;19.33;8.53;;;;;;;4.30;100.00;100198.09;4994695;28;20207;-69
2023/12/09 07:48:48;;;;;;;17.17;8.13;;;;;;;4.25;100.00;100195.31;4994417;28;20205;-73
2023/12/09 07:51:15;;;;;;;22.97;8.93;;;;;;;4.34;100.00;100202.63;5009244;28;20225;-70
2023/12/09 07:53:41;;;;;;;20.60;9.23;;;;;;;4.41;100.00;100196.78;4994962;28;20444;-70
2023/12/09 07:56:08;;;;;;;19.63;9.07;;;;;;;4.42;100.00;100181.94;4998941;28;20215;-72
2023/12/09 07:58:34;;;;;;;26.27;9.93;;;;;;;4.46;100.00;100181.19;4994527;28;20235;-69
2023/12/09 08:01:01;;;;;;;22.50;8.47;;;;;;;4.61;100.00;100185.22;4999208;28;20233;-71
2023/12/09 08:03:32;;;;;;;19.73;8.50;;;;;;;4.66;100.00;100188.00;4991691;28;20220;-70
2023/12/09 08:05:59;;;;;;;22.20;9.73;;;;;;;4.62;100.00;100178.25;4988671;28;20202;-70
2023/12/09 08:08:27;;;;;;;20.23;8.93;;;;;;;4.69;100.00;100178.50;4990290;28;20247;-70
2023/12/09 08:10:53;;;;;;;19.63;9.00;;;;;;;4.78;100.00;100161.28;4991536;28;20226;-71
2023/12/09 08:13:19;;;;;;;20.03;9.23;;;;;;;4.76;100.00;100161.22;4988906;28;20205;-71
2023/12/09 08:15:46;;;;;;;19.63;9.87;;;;;;;4.70;100.00;100158.41;4989916;28;20202;-71
2023/12/09 08:18:12;;;;;;;22.47;10.63;;;;;;;4.84;100.00;100169.38;4988589;28;20676;-71
2023/12/09 08:20:40;;;;;;;33.53;11.93;;;;;;;4.80;100.00;100159.59;4987881;28;20218;-74
2023/12/09 08:23:07;;;;;;;27.57;11.33;;;;;;;4.90;100.00;100159.97;5006726;28;20226;-71
2023/12/09 08:25:33;;;;;;;30.63;11.50;;;;;;;4.91;100.00;100168.72;4994363;28;20245;-74
2023/12/09 08:28:00;;;;;;;25.93;11.70;;;;;;;4.93;100.00;100151.28;4993680;28;20211;-71
2023/12/09 08:30:26;;;;;;;31.70;13.63;;;;;;;4.99;100.00;100143.59;4991066;28;20217;-71
2023/12/09 08:32:53;;;;;;;29.20;12.73;;;;;;;5.04;100.00;100147.25;4993501;28;20254;-71
2023/12/09 08:35:20;;;;;;;31.40;12.97;;;;;;;4.99;100.00;100126.13;4993292;28;20691;-74
2023/12/09 08:37:46;;;;;;;32.33;13.27;;;;;;;5.02;100.00;100131.47;4992666;28;20566;-70
2023/12/09 08:40:13;;;;;;;30.10;13.93;;;;;;;4.98;100.00;100115.59;4991862;28;20238;-70
2023/12/09 08:42:41;;;;;;;29.03;13.47;;;;;;;5.07;100.00;100117.59;4993237;28;20221;-73
2023/12/09 08:45:15;;;;;;;31.13;12.57;;;;;;;5.04;100.00;100123.66;4993428;28;20240;-72
2023/12/09 08:47:41;;;;;;;28.47;12.83;;;;;;;5.09;100.00;100118.53;4989230;28;20205;-70
2023/12/09 08:50:11;;;;;;;30.30;12.80;;;;;;;5.09;100.00;100103.69;4998690;28;20225;-69
2023/12/09 08:52:51;;;;;;;28.43;12.80;;;;;;;5.10;100.00;100094.06;5002894;28;20632;-74
2023/12/09 08:55:18;;;;;;;31.60;12.93;;;;;;;5.16;100.00;100095.13;4997704;28;20231;-76
2023/12/09 08:57:45;;;;;;;31.00;14.40;;;;;;;5.17;100.00;100085.53;4997440;28;20330;-75
2023/12/09 09:00:13;;;;;;;33.70;14.80;;;;;;;5.23;100.00;100089.25;5002488;28;20247;-75
2023/12/09 09:02:40;;;;;;;30.43;13.53;;;;;;;5.24;100.00;100082.28;5002488;28;20587;-75
2023/12/09 09:05:07;;;;;;;27.13;12.97;;;;;;;5.31;100.00;100087.75;4992142;28;20211;-75
2023/12/09 09:07:38;;;;;;;31.53;13.40;;;;;;;5.35;100.00;100078.22;5001664;28;20234;-75
2023/12/09 09:10:05;;;;;;;30.93;13.73;;;;;;;5.43;100.00;100081.94;4996915;28;20382;-75
2023/12/09 09:12:32;;;;;;;28.23;12.57;;;;;;;5.42;100.00;100082.78;5001959;28;20716;-78
2023/12/09 09:14:58;;;;;;;29.83;13.00;;;;;;;5.48;100.00;100074.19;4998918;28;20286;-79
2023/12/09 09:17:29;;;;;;;29.90;13.90;;;;;;;5.73;100.00;100079.31;5005182;28;20208;-79
2023/12/09 09:19:55;;;;;;;35.53;14.40;;;;;;;5.96;100.00;100066.81;4994632;28;20301;-74
2023/12/09 09:22:21;;;;;;;35.17;14.73;;;;;;;6.05;100.00;100056.56;5000294;28;20629;-75
2023/12/09 09:24:48;;;;;;;33.03;15.23;;;;;;;6.16;100.00;100054.19;4998476;28;20688;-75
2023/12/09 09:27:14;;;;;;;30.67;13.87;;;;;;;6.28;100.00;100071.16;5002019;28;20205;-77
2023/12/09 09:29:41;;;;;;;33.97;14.80;;;;;;;6.34;100.00;100065.16;5000833;28;20314;-75
2023/12/09 09:32:07;;;;;;;33.70;14.20;;;;;;;6.32;100.00;100053.72;4996255;28;20725;-73
2023/12/09 09:34:34;;;;;;;27.57;13.97;;;;;;;6.30;100.00;100052.78;4998947;28;20622;-71
2023/12/09 09:37:00;;;;;;;30.43;13.63;;;;;;;6.35;100.00;100040.63;4997224;28;20259;-73
2023/12/09 09:39:27;;;;;;;34.13;14.10;;;;;;;6.28;100.00;100041.34;5006810;28;20231;-74
2023/12/09 09:42:14;;;;;;;31.57;13.67;;;;;;;6.29;100.00;100058.91;4992209;28;20280;-69
2023/12/09 09:44:50;;;;;;;28.80;12.97;;;;;;;6.21;100.00;100069.22;5007131;28;20208;-69
2023/12/09 09:47:17;;;;;;;27.67;13.10;;;;;;;6.27;100.00;100082.53;4998382;28;20627;-70
2023/12/09 09:49:45;;;;;;;30.50;12.93;;;;;;;6.28;100.00;100073.78;4999868;28;20314;-70
2023/12/09 09:52:14;;;;;;;31.47;13.50;;;;;;;6.29;100.00;100065.03;4998467;28;20650;-71
2023/12/09 09:54:43;;;;;;;28.93;13.50;;;;;;;6.36;100.00;100052.94;4999781;28;20201;-73
2023/12/09 09:57:10;;;;;;;27.50;12.73;;;;;;;6.48;100.00;100052.38;4998702;28;20209;-70
2023/12/09 09:59:38;;;;;;;31.33;13.80;;;;;;;6.57;100.00;100044.69;5001145;28;20223;-70
2023/12/09 10:02:06;;;;;;;30.70;13.80;;;;;;;6.73;100.00;100053.81;5002017;28;20204;-71
2023/12/09 10:04:33;;;;;;;27.70;12.87;;;;;;;6.92;100.00;100048.16;4995270;28;20203;-71
2023/12/09 10:07:01;;;;;;;28.67;13.03;;;;;;;7.15;100.00;100046.00;4996787;28;20229;-75
2023/12/09 10:09:28;;;;;;;26.70;13.00;;;;;;;7.43;100.00;100037.81;5001152;28;20298;-71
2023/12/09 10:11:54;;;;;;;23.60;10.97;;;;;;;7.85;100.00;100015.78;4998135;28;20648;-73
2023/12/09 10:14:23;;;;;;;24.57;10.23;;;;;;;8.07;100.00;100001.25;5000997;28;20299;-71
2023/12/09 10:16:50;;;;;;;22.70;10.87;;;;;;;8.21;100.00;99989.16;5011834;28;20581;-71
2023/12/09 10:19:17;;;;;;;18.83;10.17;;;;;;;8.35;100.00;99982.38;4989109;28;20797;-71
2023/12/09 10:21:44;;;;;;;16.37;9.37;;;;;;;8.39;100.00;99980.69;4990624;28;20789;-71
2023/12/09 10:24:11;;;;;;;17.33;8.93;;;;;;;8.50;100.00;99971.19;4999366;28;20288;-70
2023/12/09 10:26:38;;;;;;;16.27;8.00;;;;;;;8.70;100.00;99963.56;4990417;28;20229;-73
2023/12/09 10:29:06;;;;;;;14.57;8.00;;;;;;;8.78;100.00;99961.91;4989718;28;20627;-71
2023/12/09 10:31:35;;;;;;;15.57;7.60;;;;;;;8.81;100.00;99967.25;4991013;28;20229;-71
2023/12/09 10:34:03;;;;;;;15.67;7.53;;;;;;;8.87;100.00;99961.16;4990690;28;20914;-73
2023/12/09 10:36:30;;;;;;;14.90;6.67;;;;;;;8.94;100.00;99949.81;4990248;28;20202;-71
2023/12/09 10:38:57;;;;;;;12.03;6.60;;;;;;;8.99;100.00;99938.44;4990057;28;20289;-71
2023/12/09 10:41:28;;;;;;;13.77;6.03;;;;;;;8.98;100.00;99914.63;4990334;28;20671;-71
2023/12/09 10:43:54;;;;;;;10.37;5.40;;;;;;;8.99;100.00;99917.28;4989641;28;20706;-75
2023/12/09 10:46:20;;;;;;;11.10;5.30;;;;;;;8.92;100.00;99901.38;4990363;28;20200;-72
2023/12/09 10:48:47;;;;;;;9.60;4.93;;;;;;;8.97;100.00;99886.44;4990541;28;20205;-72
2023/12/09 10:51:13;;;;;;;11.93;5.17;;;;;;;8.92;100.00;99880.25;4991671;28;20228;-71
2023/12/09 10:53:41;;;;;;;12.13;5.17;;;;;;;8.90;100.00;99860.84;4989183;28;20231;-71
2023/12/09 10:56:08;;;;;;;11.73;5.17;;;;;;;8.88;100.00;99845.00;4991817;28;20209;-72
2023/12/09 10:58:36;;;;;;;13.00;5.73;;;;;;;8.87;100.00;99837.06;4990099;28;20608;-73
2023/12/09 11:01:07;;;;;;;11.23;5.17;;;;;;;8.76;100.00;99832.50;4990157;28;20693;-73
2023/12/09 11:03:34;;;;;;;11.03;4.53;;;;;;;8.68;100.00;99818.34;5004583;28;20638;-72
2023/12/09 11:06:03;;;;;;;12.63;5.73;;;;;;;8.59;100.00;99825.28;4994980;28;20199;-71
2023/12/09 11:08:30;;;;;;;11.53;5.20;;;;;;;8.41;100.00;99824.19;4990366;28;20206;-71
2023/12/09 11:10:57;;;;;;;12.70;5.23;;;;;;;8.31;100.00;99813.44;4988038;28;20309;-68
2023/12/09 11:13:24;;;;;;;8.63;5.07;;;;;;;8.24;100.00;99815.13;4990058;28;20198;-72
2023/12/09 11:16:15;;;;;;;14.23;5.47;;;;;;;8.21;100.00;99809.81;4989242;28;20233;-72